Detall de PIREP

Printer-friendly versionPDF version

[2013/04/16 14:49:00]
Flight IATA:CT3203
Pilot Number:012
Company ICAO:CAT
Aircraft Type:C750/F
PAX:4
Departing Airport: LGAV
Destination Airport: LEPA
Alternate Airport:LEBL
Online: VATSIM
Route:RILIN/M085F430 UN604 RUTOM UM601 QUENN/M085F450 UQ123 USEPI UZ924 RIPAL UM603 MORSS
Flight Level:F450
No Slew and time accel
No pause
Crash detect
Detect pilot in Cockpit between each 30 and 45 minutes
14:49 Zero fuel Weight: 22977 Lbs, Fuel Weight: 6155 Lbs
14:49 VATSIM:LGAV 161420Z 03018KT 9999 FEW020 SCT035 BKN070 14/05 Q1017 NOSIG
14:49 VATSIM:LEPA 161430Z 21009KT 190V250 9999 FEW008 18/14 Q1021 NOSIG
14:49 VOICE CATALONIAN
14:54 Parking Brakes off
14:56 Take-off
14:56 Take off Weight: 29047 Lbs
14:56 Wind: 037º @ 019 Knots Heading: 037º
14:56 POS N37º 56´ 10´´ E023º 57´ 19´´
14:56 Gear Up: 181 Knots
14:56 Flaps:3 at 181 Knots
14:57 Flaps:2 at 181 Knots
14:57 Flaps:0 at 175 Knots
15:11 Wind:292º@028 Knots Heading: 280º Ground Speed: 477 Knots Altitude 43090 ft
15:26 Wind:304º@025 Knots Heading: 281º Ground Speed: 484 Knots Altitude 43106 ft
15:41 Wind:322º@023 Knots Heading: 288º Ground Speed: 488 Knots Altitude 43175 ft
15:56 Wind:323º@023 Knots Heading: 279º Ground Speed: 491 Knots Altitude 43185 ft
16:11 Wind:327º@022 Knots Heading: 288º Ground Speed: 490 Knots Altitude 43198 ft
16:26 Wind:345º@030 Knots Heading: 283º Ground Speed: 494 Knots Altitude 43211 ft
16:34 TOC
16:34 Fuel Weight: 3659 Lb
16:41 Wind:347º@037 Knots Heading: 264º Ground Speed: 504 Knots Altitude 45209 ft
16:46 TOD
16:46 Fuel Weight: 3397 Lb
16:56 Wind:331º@021 Knots Heading: 261º Ground Speed: 435 Knots Altitude 22998 ft
17:11 Wind:240º@004 Knots Heading: 275º Ground Speed: 233 Knots Altitude 3435 ft
17:15 Flaps:2 at 196 Knots
17:15 Flaps:3 at 196Knots
17:16 Flaps:4 at 179 Knots
17:16 Gear Down: 177 Knots
17:16 Flaps:5 at 150 Knots
17:18 TouchDown:Rate -206 ft/min Speed: 120 Knots
17:18 VATSIM:LEPA 161700Z 24004KT 200V270 CAVOK 17/14 Q1021 NOSIG
17:18 Land
17:18 Wind:237º@005 Knots
17:18 Heading: 237º
17:18 Flight Duration: 02:22
17:18 Landing Weight: 26030 Lbs
17:18 POS N39º 32´ 54´´ E002º 44´ 50´´
17:24 Parking brakes on
17:24 Block to Block Duration: 02:30
17:24 Final Fuel: 3007 Lbls
17:24 Spent Fuel: 3148 Lbls
17:24 Flight Length: 1048 NM
17:24 TOD Land Length: 174 NM

Exportar CSV

Powered by Drupal - Modified by Danger4k